GLD166 SBVT-SBCT
Flight info
| Callsign | GLD166 |
|---|---|
| Flight time | 1h 38m |
| Altitude | 38000 |
| Route | BUVI3A MABSI UZ44 ADA UZ45 RAXIT RAXI1A |
| Aircraft | A320/M-SDFGIRY/S |
Departure
| Time | 2026-04-28 19:39 |
|---|---|
| Airport | Eurico de Aguiar Salles International Airport (SBVT) |
Arrival
| Time | 2026-04-28 21:17 |
|---|---|
| Airport | Curitiba-Afonso Pena International Airport (SBCT) |
| Time | Latitude | Longitude | Altitude | Speed | Heading |
|---|---|---|---|---|---|
| 2026-04-28 19:15 | -20.26535 | -40.28171 | 21 ft | 0 kts | 262° |
| 2026-04-28 19:22 | -20.26534 | -40.28165 | 21 ft | 2 kts | 262° |
| 2026-04-28 19:22 | -20.26532 | -40.28147 | 21 ft | 2 kts | 262° |
| 2026-04-28 19:23 | -20.26529 | -40.28129 | 23 ft | 2 kts | 262° |
| 2026-04-28 19:23 | -20.26527 | -40.28111 | 24 ft | 2 kts | 262° |
| 2026-04-28 19:23 | -20.26525 | -40.28094 | 24 ft | 2 kts | 262° |
| 2026-04-28 19:23 | -20.26523 | -40.28076 | 21 ft | 2 kts | 252° |
| 2026-04-28 19:24 | -20.26515 | -40.28060 | 21 ft | 3 kts | 216° |
| 2026-04-28 19:24 | -20.26500 | -40.28052 | 22 ft | 2 kts | 181° |
| 2026-04-28 19:24 | -20.26486 | -40.28053 | 21 ft | 0 kts | 164° |
| 2026-04-28 19:29 | -20.26489 | -40.28052 | 21 ft | 2 kts | 165° |
| 2026-04-28 19:30 | -20.26509 | -40.28047 | 21 ft | 4 kts | 165° |
| 2026-04-28 19:30 | -20.26548 | -40.28035 | 21 ft | 7 kts | 165° |
| 2026-04-28 19:30 | -20.26607 | -40.28020 | 22 ft | 10 kts | 167° |
| 2026-04-28 19:30 | -20.26684 | -40.28009 | 21 ft | 12 kts | 169° |
| 2026-04-28 19:31 | -20.26692 | -40.27947 | 22 ft | 11 kts | 39° |
| 2026-04-28 19:31 | -20.26682 | -40.27938 | 21 ft | 0 kts | 39° |
| 2026-04-28 19:38 | -20.26666 | -40.27925 | 22 ft | 8 kts | 34° |
| 2026-04-28 19:38 | -20.26573 | -40.27892 | 19 ft | 20 kts | 349° |
| 2026-04-28 19:38 | -20.26255 | -40.27887 | 20 ft | 90 kts | 354° |
| 2026-04-28 19:38 | -20.25375 | -40.27981 | 192 ft | 146 kts | 357° |
| 2026-04-28 19:39 | -20.24352 | -40.28082 | 974 ft | 149 kts | 7° |
| 2026-04-28 19:39 | -20.23356 | -40.27694 | 1693 ft | 168 kts | 34° |
| 2026-04-28 19:39 | -20.22365 | -40.26851 | 2407 ft | 195 kts | 35° |
| 2026-04-28 19:39 | -20.21222 | -40.25977 | 3244 ft | 207 kts | 33° |
| 2026-04-28 19:40 | -20.20008 | -40.25082 | 3929 ft | 216 kts | 33° |
| 2026-04-28 19:40 | -20.18754 | -40.24162 | 4699 ft | 223 kts | 34° |
| 2026-04-28 19:40 | -20.17464 | -40.23213 | 5486 ft | 228 kts | 34° |
| 2026-04-28 19:40 | -20.16202 | -40.22148 | 6138 ft | 242 kts | 51° |
| 2026-04-28 19:41 | -20.15560 | -40.20423 | 6555 ft | 268 kts | 87° |
| 2026-04-28 19:41 | -20.16028 | -40.18475 | 7196 ft | 282 kts | 122° |
| 2026-04-28 19:41 | -20.17491 | -40.17083 | 8051 ft | 289 kts | 154° |
| 2026-04-28 19:41 | -20.19456 | -40.16599 | 8948 ft | 294 kts | 173° |
| 2026-04-28 19:42 | -20.21517 | -40.16586 | 9849 ft | 298 kts | 179° |
| 2026-04-28 19:42 | -20.23620 | -40.16674 | 10377 ft | 312 kts | 179° |
| 2026-04-28 19:42 | -20.25120 | -40.16701 | 10526 ft | 327 kts | 178° |
| 2026-04-28 19:42 | -20.27477 | -40.16642 | 10701 ft | 350 kts | 175° |
| 2026-04-28 19:43 | -20.29981 | -40.16458 | 10822 ft | 371 kts | 173° |
| 2026-04-28 19:43 | -20.32621 | -40.16168 | 10949 ft | 391 kts | 172° |
| 2026-04-28 19:43 | -20.35355 | -40.15803 | 11310 ft | 401 kts | 171° |
| 2026-04-28 19:43 | -20.38143 | -40.15406 | 11826 ft | 407 kts | 171° |
| 2026-04-28 19:44 | -20.40966 | -40.14997 | 12357 ft | 412 kts | 172° |
| 2026-04-28 19:44 | -20.43845 | -40.14816 | 12894 ft | 418 kts | 178° |
| 2026-04-28 19:44 | -20.46774 | -40.14754 | 13435 ft | 423 kts | 178° |
| 2026-04-28 19:44 | -20.49728 | -40.14766 | 13955 ft | 428 kts | 184° |
| 2026-04-28 19:45 | -20.52677 | -40.15296 | 14463 ft | 432 kts | 195° |
| 2026-04-28 19:45 | -20.55492 | -40.16427 | 14995 ft | 434 kts | 207° |
| 2026-04-28 19:45 | -20.58067 | -40.18109 | 15528 ft | 435 kts | 218° |
| 2026-04-28 19:45 | -20.60295 | -40.20287 | 16064 ft | 435 kts | 230° |
| 2026-04-28 19:46 | -20.62292 | -40.22718 | 16607 ft | 436 kts | 230° |
| 2026-04-28 19:46 | -20.64289 | -40.25164 | 17137 ft | 438 kts | 230° |
| 2026-04-28 19:46 | -20.66293 | -40.27614 | 17643 ft | 439 kts | 230° |
| 2026-04-28 19:46 | -20.68311 | -40.30074 | 18137 ft | 441 kts | 230° |
| 2026-04-28 19:47 | -20.70338 | -40.32541 | 18568 ft | 443 kts | 230° |
| 2026-04-28 19:47 | -20.72375 | -40.35020 | 18948 ft | 445 kts | 230° |
| 2026-04-28 19:47 | -20.74448 | -40.37545 | 19324 ft | 447 kts | 230° |
| 2026-04-28 19:47 | -20.76478 | -40.40018 | 19690 ft | 450 kts | 230° |
| 2026-04-28 19:48 | -20.78574 | -40.42571 | 20077 ft | 452 kts | 230° |
| 2026-04-28 19:48 | -20.80650 | -40.45105 | 20433 ft | 454 kts | 230° |
| 2026-04-28 19:48 | -20.82732 | -40.47650 | 20788 ft | 456 kts | 231° |
| 2026-04-28 19:48 | -20.84825 | -40.50212 | 21141 ft | 458 kts | 231° |
| 2026-04-28 19:49 | -20.86923 | -40.52783 | 21477 ft | 460 kts | 231° |
| 2026-04-28 19:49 | -20.89039 | -40.55367 | 21791 ft | 462 kts | 230° |
| 2026-04-28 19:49 | -20.91383 | -40.57746 | 22102 ft | 467 kts | 221° |
| 2026-04-28 19:49 | -20.93964 | -40.59867 | 22394 ft | 469 kts | 219° |
| 2026-04-28 19:50 | -20.99171 | -40.64115 | 22954 ft | 472 kts | 220° |
| 2026-04-28 19:50 | -21.01790 | -40.66253 | 23211 ft | 474 kts | 220° |
| 2026-04-28 19:50 | -21.04412 | -40.68394 | 23466 ft | 475 kts | 220° |
| 2026-04-28 19:51 | -21.07044 | -40.70546 | 23695 ft | 477 kts | 220° |
| 2026-04-28 19:51 | -21.09684 | -40.72709 | 23918 ft | 478 kts | 220° |
| 2026-04-28 19:51 | -21.12316 | -40.74870 | 24142 ft | 479 kts | 220° |
| 2026-04-28 19:51 | -21.14966 | -40.77046 | 24356 ft | 480 kts | 220° |
| 2026-04-28 19:52 | -21.17615 | -40.79222 | 24569 ft | 481 kts | 220° |
| 2026-04-28 19:52 | -21.20273 | -40.81408 | 24784 ft | 482 kts | 220° |
| 2026-04-28 19:52 | -21.22928 | -40.83595 | 24984 ft | 483 kts | 220° |
| 2026-04-28 19:52 | -21.25598 | -40.85795 | 25170 ft | 484 kts | 220° |
| 2026-04-28 19:53 | -21.28266 | -40.87993 | 25353 ft | 485 kts | 220° |
| 2026-04-28 19:53 | -21.30944 | -40.90198 | 25522 ft | 485 kts | 220° |
| 2026-04-28 19:53 | -21.33622 | -40.92405 | 25695 ft | 486 kts | 220° |
| 2026-04-28 19:53 | -21.36307 | -40.94617 | 25843 ft | 487 kts | 220° |
| 2026-04-28 19:54 | -21.38996 | -40.96833 | 25990 ft | 488 kts | 220° |
| 2026-04-28 19:54 | -21.41690 | -40.99050 | 26182 ft | 488 kts | 220° |
| 2026-04-28 19:54 | -21.44380 | -41.01267 | 26407 ft | 487 kts | 221° |
| 2026-04-28 19:54 | -21.47061 | -41.03479 | 26638 ft | 486 kts | 221° |
| 2026-04-28 19:55 | -21.49734 | -41.05688 | 26866 ft | 485 kts | 221° |
| 2026-04-28 19:55 | -21.52407 | -41.07897 | 27101 ft | 484 kts | 221° |
| 2026-04-28 19:55 | -21.55072 | -41.10098 | 27350 ft | 483 kts | 221° |
| 2026-04-28 19:55 | -21.57739 | -41.12301 | 27611 ft | 483 kts | 221° |
| 2026-04-28 19:56 | -21.60397 | -41.14501 | 27881 ft | 482 kts | 221° |
| 2026-04-28 19:56 | -21.63081 | -41.16724 | 28157 ft | 481 kts | 221° |
| 2026-04-28 19:56 | -21.65696 | -41.18888 | 28446 ft | 480 kts | 221° |
| 2026-04-28 19:56 | -21.68376 | -41.21106 | 28757 ft | 479 kts | 221° |
| 2026-04-28 19:57 | -21.71009 | -41.23285 | 29060 ft | 478 kts | 221° |
| 2026-04-28 19:57 | -21.73642 | -41.25466 | 29382 ft | 477 kts | 221° |
| 2026-04-28 19:57 | -21.76260 | -41.27652 | 29704 ft | 476 kts | 222° |
| 2026-04-28 19:57 | -21.78864 | -41.29845 | 30051 ft | 475 kts | 222° |
| 2026-04-28 19:58 | -21.81457 | -41.32039 | 30345 ft | 474 kts | 222° |
| 2026-04-28 19:58 | -21.84044 | -41.34230 | 30650 ft | 473 kts | 222° |
| 2026-04-28 19:58 | -21.86631 | -41.36416 | 30954 ft | 472 kts | 222° |
| 2026-04-28 19:58 | -21.89213 | -41.38595 | 31261 ft | 471 kts | 222° |
| 2026-04-28 19:59 | -21.91792 | -41.40770 | 31578 ft | 470 kts | 222° |
| 2026-04-28 19:59 | -21.94364 | -41.42941 | 31902 ft | 469 kts | 222° |
| 2026-04-28 19:59 | -21.96930 | -41.45105 | 32242 ft | 468 kts | 222° |
| 2026-04-28 19:59 | -21.99491 | -41.47264 | 32578 ft | 467 kts | 222° |
| 2026-04-28 20:00 | -22.02040 | -41.49420 | 32929 ft | 465 kts | 222° |
| 2026-04-28 20:00 | -22.04588 | -41.51575 | 33273 ft | 464 kts | 222° |
| 2026-04-28 20:00 | -22.07120 | -41.53716 | 33627 ft | 463 kts | 222° |
| 2026-04-28 20:00 | -22.09647 | -41.55856 | 34008 ft | 461 kts | 222° |
| 2026-04-28 20:01 | -22.12165 | -41.57991 | 34325 ft | 459 kts | 222° |
| 2026-04-28 20:01 | -22.14673 | -41.60116 | 34659 ft | 458 kts | 222° |
| 2026-04-28 20:01 | -22.17174 | -41.62234 | 35005 ft | 456 kts | 222° |
| 2026-04-28 20:01 | -22.19662 | -41.64337 | 35346 ft | 454 kts | 222° |
| 2026-04-28 20:02 | -22.22146 | -41.66438 | 35691 ft | 453 kts | 222° |
| 2026-04-28 20:02 | -22.24618 | -41.68535 | 36002 ft | 451 kts | 222° |
| 2026-04-28 20:02 | -22.27077 | -41.70624 | 36325 ft | 450 kts | 222° |
| 2026-04-28 20:02 | -22.29532 | -41.72710 | 36645 ft | 448 kts | 222° |
| 2026-04-28 20:03 | -22.31980 | -41.74792 | 36970 ft | 447 kts | 222° |
| 2026-04-28 20:03 | -22.34432 | -41.76846 | 37258 ft | 447 kts | 219° |
| 2026-04-28 20:03 | -22.37049 | -41.78678 | 37551 ft | 448 kts | 216° |
| 2026-04-28 20:03 | -22.39674 | -41.80473 | 37846 ft | 446 kts | 216° |
| 2026-04-28 20:04 | -22.42333 | -41.82292 | 37985 ft | 447 kts | 216° |
| 2026-04-28 20:04 | -22.47583 | -41.85882 | 38018 ft | 446 kts | 217° |
| 2026-04-28 20:05 | -22.52817 | -41.89470 | 38034 ft | 446 kts | 217° |
| 2026-04-28 20:05 | -22.58050 | -41.93067 | 38047 ft | 445 kts | 217° |
| 2026-04-28 20:06 | -22.63281 | -41.96664 | 38035 ft | 445 kts | 217° |
| 2026-04-28 20:06 | -22.68508 | -42.00270 | 38024 ft | 446 kts | 217° |
| 2026-04-28 20:07 | -22.73679 | -42.03977 | 38019 ft | 445 kts | 218° |
| 2026-04-28 20:07 | -22.78711 | -42.07868 | 38020 ft | 441 kts | 226° |
| 2026-04-28 20:08 | -22.82585 | -42.12903 | 38024 ft | 433 kts | 243° |
| 2026-04-28 20:08 | -22.85202 | -42.18748 | 38026 ft | 431 kts | 248° |
| 2026-04-28 20:09 | -22.87719 | -42.24646 | 38042 ft | 431 kts | 248° |
| 2026-04-28 20:09 | -22.90236 | -42.30547 | 38058 ft | 431 kts | 248° |
| 2026-04-28 20:10 | -22.92747 | -42.36453 | 38083 ft | 431 kts | 248° |
| 2026-04-28 20:10 | -22.95254 | -42.42362 | 38087 ft | 431 kts | 248° |
| 2026-04-28 20:11 | -22.97752 | -42.48261 | 38095 ft | 430 kts | 248° |
| 2026-04-28 20:11 | -23.00247 | -42.54163 | 38090 ft | 430 kts | 248° |
| 2026-04-28 20:12 | -23.02764 | -42.60093 | 38092 ft | 429 kts | 248° |
| 2026-04-28 20:12 | -23.05257 | -42.65983 | 38086 ft | 429 kts | 248° |
| 2026-04-28 20:13 | -23.07744 | -42.71872 | 38086 ft | 429 kts | 248° |
| 2026-04-28 20:13 | -23.10220 | -42.77759 | 38088 ft | 429 kts | 248° |
| 2026-04-28 20:14 | -23.12695 | -42.83655 | 38086 ft | 429 kts | 248° |
| 2026-04-28 20:14 | -23.15106 | -42.89392 | 38083 ft | 429 kts | 248° |
| 2026-04-28 20:15 | -23.17583 | -42.95287 | 38080 ft | 429 kts | 248° |
| 2026-04-28 20:15 | -23.20053 | -43.01185 | 38076 ft | 429 kts | 248° |
| 2026-04-28 20:16 | -23.22530 | -43.07085 | 38083 ft | 429 kts | 248° |
| 2026-04-28 20:16 | -23.24582 | -43.11987 | 38080 ft | 428 kts | 248° |
| 2026-04-28 20:17 | -23.27457 | -43.18875 | 38074 ft | 428 kts | 249° |
| 2026-04-28 20:17 | -23.29512 | -43.23807 | 38073 ft | 427 kts | 249° |
| 2026-04-28 20:18 | -23.31536 | -43.29841 | 38073 ft | 423 kts | 258° |
| 2026-04-28 20:18 | -23.32986 | -43.36050 | 38075 ft | 424 kts | 258° |
| 2026-04-28 20:19 | -23.34450 | -43.42259 | 38081 ft | 424 kts | 258° |
| 2026-04-28 20:19 | -23.35915 | -43.48479 | 38080 ft | 424 kts | 258° |
| 2026-04-28 20:20 | -23.37372 | -43.54699 | 38082 ft | 424 kts | 258° |
| 2026-04-28 20:20 | -23.38827 | -43.60924 | 38086 ft | 424 kts | 258° |
| 2026-04-28 20:21 | -23.40286 | -43.67149 | 38080 ft | 424 kts | 258° |
| 2026-04-28 20:21 | -23.41735 | -43.73368 | 38078 ft | 424 kts | 258° |
| 2026-04-28 20:22 | -23.43180 | -43.79589 | 38081 ft | 424 kts | 258° |
| 2026-04-28 20:22 | -23.44622 | -43.85812 | 38082 ft | 424 kts | 258° |
| 2026-04-28 20:23 | -23.46067 | -43.92027 | 38083 ft | 424 kts | 258° |
| 2026-04-28 20:23 | -23.47503 | -43.98247 | 38080 ft | 423 kts | 258° |
| 2026-04-28 20:24 | -23.48935 | -44.04465 | 38076 ft | 423 kts | 258° |
| 2026-04-28 20:24 | -23.50367 | -44.10687 | 38076 ft | 423 kts | 258° |
| 2026-04-28 20:25 | -23.51814 | -44.16952 | 38076 ft | 424 kts | 258° |
| 2026-04-28 20:25 | -23.53243 | -44.23181 | 38079 ft | 424 kts | 258° |
| 2026-04-28 20:26 | -23.54666 | -44.29410 | 38079 ft | 424 kts | 258° |
| 2026-04-28 20:26 | -23.56097 | -44.35639 | 38077 ft | 423 kts | 258° |
| 2026-04-28 20:27 | -23.57519 | -44.41864 | 38084 ft | 423 kts | 258° |
| 2026-04-28 20:27 | -23.58934 | -44.48081 | 38078 ft | 423 kts | 259° |
| 2026-04-28 20:28 | -23.60350 | -44.54301 | 38081 ft | 422 kts | 259° |
| 2026-04-28 20:28 | -23.61765 | -44.60518 | 38083 ft | 422 kts | 259° |
| 2026-04-28 20:29 | -23.63175 | -44.66735 | 38076 ft | 422 kts | 259° |
| 2026-04-28 20:29 | -23.64573 | -44.72948 | 38079 ft | 422 kts | 259° |
| 2026-04-28 20:30 | -23.65975 | -44.79165 | 38072 ft | 422 kts | 259° |
| 2026-04-28 20:30 | -23.67378 | -44.85380 | 38077 ft | 422 kts | 259° |
| 2026-04-28 20:31 | -23.68770 | -44.91598 | 38073 ft | 422 kts | 259° |
| 2026-04-28 20:31 | -23.70167 | -44.97820 | 38075 ft | 422 kts | 259° |
| 2026-04-28 20:32 | -23.71560 | -45.04043 | 38078 ft | 422 kts | 259° |
| 2026-04-28 20:32 | -23.72949 | -45.10270 | 38080 ft | 422 kts | 259° |
| 2026-04-28 20:33 | -23.74345 | -45.16536 | 38079 ft | 422 kts | 259° |
| 2026-04-28 20:33 | -23.75726 | -45.22766 | 38083 ft | 422 kts | 259° |
| 2026-04-28 20:34 | -23.77107 | -45.28997 | 38079 ft | 422 kts | 259° |
| 2026-04-28 20:34 | -23.78479 | -45.35228 | 38079 ft | 422 kts | 259° |
| 2026-04-28 20:35 | -23.79852 | -45.41458 | 38077 ft | 422 kts | 259° |
| 2026-04-28 20:35 | -23.81221 | -45.47691 | 38079 ft | 422 kts | 259° |
| 2026-04-28 20:36 | -23.82582 | -45.53930 | 38079 ft | 422 kts | 259° |
| 2026-04-28 20:36 | -23.83947 | -45.60160 | 38078 ft | 422 kts | 259° |
| 2026-04-28 20:37 | -23.85311 | -45.66395 | 38079 ft | 422 kts | 260° |
| 2026-04-28 20:37 | -23.86672 | -45.72626 | 38076 ft | 422 kts | 259° |
| 2026-04-28 20:38 | -23.88037 | -45.78858 | 38074 ft | 422 kts | 259° |
| 2026-04-28 20:38 | -23.89401 | -45.85088 | 38075 ft | 422 kts | 260° |
| 2026-04-28 20:39 | -23.90758 | -45.91320 | 38077 ft | 421 kts | 260° |
| 2026-04-28 20:39 | -23.92116 | -45.97596 | 38071 ft | 421 kts | 260° |
| 2026-04-28 20:40 | -23.93465 | -46.03825 | 38067 ft | 421 kts | 260° |
| 2026-04-28 20:40 | -23.94809 | -46.10050 | 38059 ft | 421 kts | 260° |
| 2026-04-28 20:41 | -23.96152 | -46.16270 | 38058 ft | 420 kts | 260° |
| 2026-04-28 20:41 | -23.97495 | -46.22491 | 38037 ft | 420 kts | 260° |
| 2026-04-28 20:42 | -23.99050 | -46.28652 | 38046 ft | 422 kts | 255° |
| 2026-04-28 20:42 | -24.00984 | -46.34718 | 38047 ft | 422 kts | 254° |
| 2026-04-28 20:43 | -24.02921 | -46.40785 | 38052 ft | 422 kts | 255° |
| 2026-04-28 20:43 | -24.04852 | -46.46845 | 38062 ft | 422 kts | 255° |
| 2026-04-28 20:44 | -24.06780 | -46.52905 | 38069 ft | 422 kts | 255° |
| 2026-04-28 20:44 | -24.08703 | -46.58963 | 38074 ft | 421 kts | 255° |
| 2026-04-28 20:45 | -24.10623 | -46.65021 | 38084 ft | 421 kts | 255° |
| 2026-04-28 20:45 | -24.12541 | -46.71085 | 38087 ft | 421 kts | 255° |
| 2026-04-28 20:46 | -24.14455 | -46.77147 | 38078 ft | 421 kts | 255° |
| 2026-04-28 20:46 | -24.16375 | -46.83207 | 38084 ft | 421 kts | 255° |
| 2026-04-28 20:47 | -24.18287 | -46.89264 | 38082 ft | 420 kts | 255° |
| 2026-04-28 20:47 | -24.20199 | -46.95356 | 38090 ft | 420 kts | 255° |
| 2026-04-28 20:48 | -24.22093 | -47.01401 | 38099 ft | 419 kts | 255° |
| 2026-04-28 20:48 | -24.23985 | -47.07434 | 38096 ft | 418 kts | 256° |
| 2026-04-28 20:49 | -24.25553 | -47.12444 | 38093 ft | 418 kts | 256° |
| 2026-04-28 20:49 | -24.27405 | -47.18472 | 38099 ft | 416 kts | 256° |
| 2026-04-28 20:50 | -24.29162 | -47.24503 | 38096 ft | 415 kts | 257° |
| 2026-04-28 20:50 | -24.30885 | -47.30531 | 38096 ft | 414 kts | 257° |
| 2026-04-28 20:51 | -24.32616 | -47.36542 | 38097 ft | 413 kts | 257° |
| 2026-04-28 20:51 | -24.34361 | -47.42544 | 38095 ft | 413 kts | 257° |
| 2026-04-28 20:52 | -24.36104 | -47.48541 | 38093 ft | 412 kts | 257° |
| 2026-04-28 20:52 | -24.37838 | -47.54539 | 38089 ft | 412 kts | 257° |
| 2026-04-28 20:53 | -24.40440 | -47.63557 | 38088 ft | 411 kts | 257° |
| 2026-04-28 20:53 | -24.42834 | -47.69295 | 38088 ft | 422 kts | 242° |
| 2026-04-28 20:54 | -24.46897 | -47.74087 | 38089 ft | 434 kts | 230° |
| 2026-04-28 20:54 | -24.51329 | -47.78577 | 38091 ft | 434 kts | 230° |
| 2026-04-28 20:55 | -24.55747 | -47.83080 | 38094 ft | 433 kts | 231° |
| 2026-04-28 20:55 | -24.60157 | -47.87587 | 38098 ft | 433 kts | 231° |
| 2026-04-28 20:56 | -24.64559 | -47.92090 | 37682 ft | 430 kts | 231° |
| 2026-04-28 20:56 | -24.66742 | -47.94323 | 37161 ft | 426 kts | 231° |
| 2026-04-28 20:56 | -24.68903 | -47.96531 | 36674 ft | 422 kts | 231° |
| 2026-04-28 20:57 | -24.71046 | -47.98721 | 36204 ft | 419 kts | 231° |
| 2026-04-28 20:57 | -24.73170 | -48.00895 | 35745 ft | 415 kts | 231° |
| 2026-04-28 20:57 | -24.75275 | -48.03050 | 35313 ft | 412 kts | 231° |
| 2026-04-28 20:57 | -24.77364 | -48.05190 | 34880 ft | 409 kts | 231° |
| 2026-04-28 20:58 | -24.79437 | -48.07315 | 34449 ft | 406 kts | 231° |
| 2026-04-28 20:58 | -24.81497 | -48.09427 | 34026 ft | 403 kts | 231° |
| 2026-04-28 20:58 | -24.83539 | -48.11525 | 33469 ft | 398 kts | 231° |
| 2026-04-28 20:58 | -24.85549 | -48.13589 | 32564 ft | 394 kts | 231° |
| 2026-04-28 20:59 | -24.87547 | -48.15644 | 31634 ft | 392 kts | 231° |
| 2026-04-28 20:59 | -24.89532 | -48.17687 | 30741 ft | 390 kts | 231° |
| 2026-04-28 20:59 | -24.91503 | -48.19722 | 29836 ft | 388 kts | 231° |
| 2026-04-28 20:59 | -24.93464 | -48.21751 | 29001 ft | 385 kts | 231° |
| 2026-04-28 21:00 | -24.95407 | -48.23760 | 28213 ft | 381 kts | 232° |
| 2026-04-28 21:00 | -24.97182 | -48.25866 | 27484 ft | 369 kts | 239° |
| 2026-04-28 21:00 | -24.98659 | -48.28127 | 26762 ft | 359 kts | 245° |
| 2026-04-28 21:00 | -24.99859 | -48.30536 | 26029 ft | 350 kts | 250° |
| 2026-04-28 21:01 | -25.00927 | -48.32934 | 25293 ft | 347 kts | 250° |
| 2026-04-28 21:01 | -25.01986 | -48.35308 | 24562 ft | 343 kts | 250° |
| 2026-04-28 21:01 | -25.03034 | -48.37656 | 23863 ft | 339 kts | 250° |
| 2026-04-28 21:01 | -25.04070 | -48.39975 | 23054 ft | 336 kts | 250° |
| 2026-04-28 21:02 | -25.05103 | -48.42279 | 22227 ft | 333 kts | 249° |
| 2026-04-28 21:02 | -25.06128 | -48.44558 | 21433 ft | 330 kts | 249° |
| 2026-04-28 21:02 | -25.07144 | -48.46813 | 20665 ft | 327 kts | 249° |
| 2026-04-28 21:02 | -25.08146 | -48.49047 | 19887 ft | 324 kts | 249° |
| 2026-04-28 21:03 | -25.09139 | -48.51271 | 19144 ft | 322 kts | 249° |
| 2026-04-28 21:03 | -25.10122 | -48.53475 | 18460 ft | 319 kts | 249° |
| 2026-04-28 21:03 | -25.11098 | -48.55659 | 17697 ft | 316 kts | 248° |
| 2026-04-28 21:03 | -25.12064 | -48.57824 | 16962 ft | 313 kts | 248° |
| 2026-04-28 21:04 | -25.13021 | -48.59966 | 16272 ft | 309 kts | 248° |
| 2026-04-28 21:04 | -25.13965 | -48.62078 | 15580 ft | 306 kts | 248° |
| 2026-04-28 21:04 | -25.14901 | -48.64176 | 14881 ft | 303 kts | 248° |
| 2026-04-28 21:04 | -25.15825 | -48.66250 | 14111 ft | 302 kts | 248° |
| 2026-04-28 21:05 | -25.16762 | -48.68361 | 13165 ft | 307 kts | 247° |
| 2026-04-28 21:05 | -25.17684 | -48.70434 | 12668 ft | 295 kts | 248° |
| 2026-04-28 21:05 | -25.18574 | -48.72439 | 12407 ft | 291 kts | 248° |
| 2026-04-28 21:05 | -25.19460 | -48.74449 | 12036 ft | 290 kts | 248° |
| 2026-04-28 21:06 | -25.20339 | -48.76445 | 11649 ft | 289 kts | 248° |
| 2026-04-28 21:06 | -25.21126 | -48.78495 | 11262 ft | 289 kts | 256° |
| 2026-04-28 21:06 | -25.21577 | -48.80630 | 10977 ft | 281 kts | 265° |
| 2026-04-28 21:06 | -25.21734 | -48.82779 | 10840 ft | 281 kts | 270° |
| 2026-04-28 21:07 | -25.21854 | -48.84929 | 10694 ft | 280 kts | 269° |
| 2026-04-28 21:07 | -25.21980 | -48.87061 | 10534 ft | 278 kts | 269° |
| 2026-04-28 21:07 | -25.22108 | -48.89188 | 10377 ft | 278 kts | 269° |
| 2026-04-28 21:07 | -25.22232 | -48.91316 | 10221 ft | 278 kts | 269° |
| 2026-04-28 21:08 | -25.22353 | -48.93451 | 10064 ft | 277 kts | 269° |
| 2026-04-28 21:08 | -25.22476 | -48.95605 | 9899 ft | 278 kts | 269° |
| 2026-04-28 21:08 | -25.22666 | -48.97727 | 9732 ft | 280 kts | 262° |
| 2026-04-28 21:08 | -25.23273 | -48.99776 | 9575 ft | 283 kts | 249° |
| 2026-04-28 21:09 | -25.24100 | -49.01734 | 9420 ft | 283 kts | 249° |
| 2026-04-28 21:09 | -25.24925 | -49.03705 | 9261 ft | 283 kts | 249° |
| 2026-04-28 21:09 | -25.25750 | -49.05680 | 8992 ft | 282 kts | 249° |
| 2026-04-28 21:09 | -25.26567 | -49.07640 | 8785 ft | 281 kts | 249° |
| 2026-04-28 21:10 | -25.27386 | -49.09602 | 8639 ft | 281 kts | 249° |
| 2026-04-28 21:10 | -25.28204 | -49.11557 | 8454 ft | 281 kts | 249° |
| 2026-04-28 21:10 | -25.29026 | -49.13521 | 8310 ft | 281 kts | 249° |
| 2026-04-28 21:10 | -25.29844 | -49.15478 | 8151 ft | 281 kts | 249° |
| 2026-04-28 21:11 | -25.30661 | -49.17442 | 7991 ft | 281 kts | 249° |
| 2026-04-28 21:11 | -25.31477 | -49.19401 | 7837 ft | 280 kts | 249° |
| 2026-04-28 21:11 | -25.32283 | -49.21341 | 7677 ft | 274 kts | 249° |
| 2026-04-28 21:11 | -25.33109 | -49.23212 | 7526 ft | 268 kts | 242° |
| 2026-04-28 21:12 | -25.34277 | -49.24809 | 7283 ft | 270 kts | 227° |
| 2026-04-28 21:12 | -25.35635 | -49.26251 | 6987 ft | 270 kts | 227° |
| 2026-04-28 21:12 | -25.36990 | -49.27691 | 6682 ft | 270 kts | 227° |
| 2026-04-28 21:12 | -25.38340 | -49.29129 | 6386 ft | 270 kts | 227° |
| 2026-04-28 21:13 | -25.39878 | -49.30315 | 6078 ft | 273 kts | 200° |
| 2026-04-28 21:13 | -25.41727 | -49.30401 | 5839 ft | 262 kts | 161° |
| 2026-04-28 21:13 | -25.43153 | -49.29366 | 5595 ft | 237 kts | 122° |
| 2026-04-28 21:13 | -25.43842 | -49.27810 | 5321 ft | 219 kts | 110° |
| 2026-04-28 21:14 | -25.44758 | -49.26512 | 5092 ft | 211 kts | 135° |
| 2026-04-28 21:14 | -25.45798 | -49.25452 | 4848 ft | 196 kts | 130° |
| 2026-04-28 21:14 | -25.46728 | -49.24426 | 4575 ft | 181 kts | 130° |
| 2026-04-28 21:14 | -25.47574 | -49.23483 | 4344 ft | 165 kts | 130° |
| 2026-04-28 21:15 | -25.48343 | -49.22623 | 4160 ft | 149 kts | 130° |
| 2026-04-28 21:15 | -25.49046 | -49.21837 | 3944 ft | 139 kts | 130° |
| 2026-04-28 21:15 | -25.49724 | -49.21077 | 3754 ft | 135 kts | 130° |
| 2026-04-28 21:15 | -25.50383 | -49.20339 | 3554 ft | 135 kts | 131° |
| 2026-04-28 21:16 | -25.51027 | -49.19618 | 3357 ft | 132 kts | 133° |
| 2026-04-28 21:16 | -25.51683 | -49.18892 | 3183 ft | 133 kts | 131° |
| 2026-04-28 21:16 | -25.52321 | -49.18174 | 3021 ft | 132 kts | 134° |
| 2026-04-28 21:16 | -25.52841 | -49.17584 | 2994 ft | 65 kts | 135° |
| 2026-04-28 21:17 | -25.52967 | -49.17446 | 2997 ft | 8 kts | 135° |
| 2026-04-28 21:17 | -25.53069 | -49.17329 | 2996 ft | 32 kts | 133° |
| 2026-04-28 21:17 | -25.53173 | -49.17305 | 2996 ft | 16 kts | 248° |
| 2026-04-28 21:17 | -25.53210 | -49.17355 | 2996 ft | 0 kts | 224° |
| 2026-04-28 21:18 | -25.53236 | -49.17362 | 2996 ft | 12 kts | 162° |
| 2026-04-28 21:19 | -25.53329 | -49.17256 | 2996 ft | 21 kts | 133° |
| 2026-04-28 21:19 | -25.53435 | -49.17144 | 2996 ft | 18 kts | 137° |
| 2026-04-28 21:19 | -25.53519 | -49.17174 | 2996 ft | 14 kts | 224° |
| 2026-04-28 21:19 | -25.53570 | -49.17235 | 2996 ft | 0 kts | 231° |